aviador You're here:

KLAS Decoded Metar

LAS VEGAS in NV, USA
Report Time2018-04-24 17:56:00
UTC Time2018-04-24 18:27:32
Flight Rules vfr VFR
Wind050° at 09 kt
W.Decomp.*RWY 01: 8.2 kt HW 3.8 kt RCW
RWY 07: 7.4 kt HW 5.2 kt LCW
W.Rank050° ranks 13
Current wind is above 050° avg. (7.5)
Visibility9999 m
Phenomena:N/A
Clouds:Scattered 250 Hf
Expected CloudBase > 12,800 ft AGL from Temp-Dew spread
CeilingNone
Temp28°C (ISA +17)
Dew Point-4°C (12% RH)
Heat Index26.6°C
AAT22.3°C
QNH1017 hPa
Density Alt3,983 ft
Elevation2,087 ft
Report Wrong Elevation
Raw Report
KLAS 241756Z 05009KT 10SM SCT250 28/M04 A3004 RMK AO2 SLP148
T02781039 10283 20194 50003=

Extra information for KLAS:More info

Metar Taf Metar & Taf Last 4 Metars F.Rules Stats Wind Profile Meteogram Temp Stats Airport Information Weather charts Add Link Nearby VenuesMetar ALERT Operation Metar Decoded Social comments

AIRNAV info for KLAS